Time;durP1;ratioP1;P1;durP2;ratioP2;P2;SDS_P1;SDS_P2;PMS_P1;PMS_P2;Temp;Humidity;BMP_temperature;BMP_pressure;BME280_temperature;BME280_humidity;BME280_pressure;Samples;Min_cycle;Max_cycle;Signal;HPM_P1;HPM_P2
2023/10/03 00:00:31;;;;;;;22.45;9.73;;;22.00;99.90;;;;;;10030749;28;20553;-68
2023/10/03 00:05:23;;;;;;;22.27;9.52;;;21.90;99.90;;;;;;10041418;28;20022;-69
2023/10/03 00:10:14;;;;;;;24.55;10.15;;;21.90;99.90;;;;;;10051221;28;20127;-71
2023/10/03 00:15:08;;;;;;;21.65;9.20;;;21.90;99.90;;;;;;10052978;28;20069;-72
2023/10/03 00:19:59;;;;;;;21.17;8.88;;;21.80;99.90;;;;;;10053648;28;20041;-70
2023/10/03 00:24:51;;;;;;;18.95;9.77;;;21.70;99.90;;;;;;10049294;28;20085;-67
2023/10/03 00:29:41;;;;;;;20.35;9.40;;;21.80;99.90;;;;;;10048116;28;20293;-66
2023/10/03 00:34:36;;;;;;;22.02;9.63;;;21.80;99.90;;;;;;10066037;28;20087;-69
2023/10/03 00:39:27;;;;;;;18.98;7.97;;;21.80;99.90;;;;;;10058096;28;20428;-74
2023/10/03 00:44:19;;;;;;;24.67;9.55;;;21.80;99.90;;;;;;10056220;28;20107;-66
2023/10/03 00:49:14;;;;;;;18.13;9.60;;;21.70;99.90;;;;;;10057922;28;20028;-66
2023/10/03 00:54:05;;;;;;;22.52;9.27;;;21.70;99.90;;;;;;10057263;28;20025;-64
2023/10/03 00:58:57;;;;;;;17.08;9.05;;;21.80;99.90;;;;;;10056903;28;20111;-64
2023/10/03 01:03:48;;;;;;;20.88;10.23;;;21.80;99.90;;;;;;10056674;28;20033;-65
2023/10/03 01:08:46;;;;;;;21.55;9.50;;;21.90;99.90;;;;;;10052696;28;20033;-64
2023/10/03 01:13:37;;;;;;;25.08;10.38;;;21.70;99.90;;;;;;10056750;28;20124;-65
2023/10/03 01:18:31;;;;;;;24.05;10.98;;;21.80;99.90;;;;;;10057295;28;20416;-64
2023/10/03 01:23:23;;;;;;;22.52;9.98;;;21.80;99.90;;;;;;10056303;28;20124;-66
2023/10/03 01:28:14;;;;;;;20.23;9.20;;;21.80;99.90;;;;;;10056629;28;20595;-64
2023/10/03 01:33:06;;;;;;;20.88;8.57;;;21.80;99.90;;;;;;10064436;28;20116;-65
2023/10/03 01:37:57;;;;;;;19.65;8.98;;;21.80;99.90;;;;;;10055784;28;20029;-64
2023/10/03 01:42:48;;;;;;;22.10;8.88;;;21.70;99.90;;;;;;10039272;28;20041;-65
2023/10/03 01:47:45;;;;;;;21.63;11.10;;;21.70;99.90;;;;;;10065612;28;20040;-68
2023/10/03 01:52:37;;;;;;;20.15;8.13;;;21.60;99.90;;;;;;10063879;28;20041;-64
2023/10/03 01:57:28;;;;;;;19.45;8.23;;;21.70;99.90;;;;;;10064244;28;20049;-65
2023/10/03 02:02:19;;;;;;;22.73;9.27;;;21.60;99.90;;;;;;10057137;28;20049;-67
2023/10/03 02:07:09;;;;;;;18.55;8.30;;;21.50;99.90;;;;;;10063182;28;20332;-65
2023/10/03 02:12:00;;;;;;;22.50;9.80;;;21.50;99.90;;;;;;10060587;28;20029;-66
2023/10/03 02:16:51;;;;;;;21.02;9.07;;;21.40;99.90;;;;;;10061736;28;20116;-67
2023/10/03 02:21:42;;;;;;;19.20;8.18;;;21.50;99.90;;;;;;10062778;28;20111;-65
2023/10/03 02:26:33;;;;;;;16.20;8.07;;;21.50;99.90;;;;;;10063747;28;20034;-65
2023/10/03 02:31:23;;;;;;;15.43;7.93;;;21.50;99.90;;;;;;10070115;28;20041;-73
2023/10/03 02:36:15;;;;;;;18.08;8.65;;;21.40;99.90;;;;;;10064610;28;20034;-70
2023/10/03 02:41:07;;;;;;;18.23;8.35;;;21.30;99.90;;;;;;10058064;28;20455;-66
2023/10/03 02:45:59;;;;;;;17.60;8.38;;;21.40;99.90;;;;;;10045806;28;20029;-67
2023/10/03 02:50:50;;;;;;;16.15;7.43;;;21.40;99.90;;;;;;10041096;28;20424;-74
2023/10/03 02:55:43;;;;;;;15.90;7.75;;;21.40;99.90;;;;;;10040905;28;20035;-67
2023/10/03 03:00:35;;;;;;;14.35;7.63;;;21.30;99.90;;;;;;10033825;28;20430;-65
2023/10/03 03:05:35;;;;;;;19.35;7.47;;;21.30;99.90;;;;;;10057766;28;20025;-65
2023/10/03 03:10:28;;;;;;;13.93;7.68;;;21.30;99.90;;;;;;10058629;28;20025;-65
2023/10/03 03:15:23;;;;;;;14.70;7.38;;;21.30;99.90;;;;;;10056696;28;20034;-65
2023/10/03 03:20:34;;;;;;;16.55;6.68;;;21.30;99.90;;;;;;10059897;28;20060;-65
2023/10/03 03:25:36;;;;;;;12.27;6.45;;;21.30;99.90;;;;;;10040135;28;20037;-69
2023/10/03 03:35:18;;;;;;;12.63;5.68;;;21.30;99.90;;;;;;10054702;28;20499;-74
2023/10/03 03:40:25;;;;;;;11.77;5.50;;;21.40;99.90;;;;;;10055212;28;20239;-65
2023/10/03 03:45:17;;;;;;;9.90;5.45;;;21.40;99.90;;;;;;10051926;28;20054;-67
2023/10/03 03:50:10;;;;;;;11.20;4.68;;;21.40;99.90;;;;;;10041314;28;20033;-66
2023/10/03 03:55:03;;;;;;;7.75;4.82;;;21.50;99.90;;;;;;10036562;28;20071;-65
2023/10/03 03:59:54;;;;;;;14.15;5.05;;;21.50;99.90;;;;;;10038651;28;20046;-64
2023/10/03 04:04:45;;;;;;;11.55;4.75;;;21.50;99.90;;;;;;10031432;28;20029;-73
2023/10/03 04:09:35;;;;;;;10.07;5.10;;;21.60;99.90;;;;;;10050718;28;20625;-71
2023/10/03 04:14:27;;;;;;;11.02;4.07;;;21.60;99.90;;;;;;10054058;28;20539;-64
2023/10/03 04:19:18;;;;;;;10.43;4.70;;;21.60;99.90;;;;;;10054231;28;20018;-64
2023/10/03 04:24:10;;;;;;;10.93;5.18;;;21.60;99.90;;;;;;10048145;28;20447;-65
2023/10/03 04:29:01;;;;;;;11.65;5.20;;;21.60;99.90;;;;;;10050690;28;20041;-66
2023/10/03 04:33:52;;;;;;;8.00;4.32;;;21.60;99.90;;;;;;10066697;28;20212;-66
2023/10/03 04:38:42;;;;;;;9.73;4.07;;;21.60;99.90;;;;;;10057964;28;20029;-69
2023/10/03 04:43:33;;;;;;;10.15;4.47;;;21.60;99.90;;;;;;10057210;28;20041;-63
2023/10/03 04:48:24;;;;;;;7.70;3.95;;;21.60;99.90;;;;;;10057874;28;20021;-65
2023/10/03 04:53:15;;;;;;;8.45;4.38;;;21.60;99.90;;;;;;10056221;28;20411;-65
2023/10/03 04:58:06;;;;;;;9.80;4.55;;;21.60;99.90;;;;;;10057067;28;20249;-65
2023/10/03 05:02:57;;;;;;;9.13;4.55;;;21.50;99.90;;;;;;10057395;28;20106;-65
2023/10/03 05:07:49;;;;;;;6.40;3.92;;;21.60;99.90;;;;;;10031702;28;20021;-68
2023/10/03 05:12:39;;;;;;;8.02;4.25;;;21.60;99.90;;;;;;10055641;28;20624;-68
2023/10/03 05:17:30;;;;;;;9.40;4.80;;;21.60;99.90;;;;;;10052144;28;20022;-68
2023/10/03 05:22:23;;;;;;;7.72;4.38;;;21.50;99.90;;;;;;10052266;28;20128;-65
2023/10/03 05:27:14;;;;;;;7.75;5.50;;;21.50;99.90;;;;;;10039978;28;20037;-69
2023/10/03 05:32:05;;;;;;;7.97;4.00;;;21.50;99.90;;;;;;10064674;28;20450;-71
2023/10/03 05:36:56;;;;;;;8.70;4.65;;;21.50;99.90;;;;;;10044617;28;20025;-72
2023/10/03 05:41:46;;;;;;;11.02;4.60;;;21.50;99.90;;;;;;10059947;28;20049;-70
2023/10/03 05:46:42;;;;;;;8.95;4.13;;;21.50;99.90;;;;;;10060026;28;20033;-75
2023/10/03 05:51:36;;;;;;;9.35;4.55;;;21.40;99.90;;;;;;10059927;28;20025;-68
2023/10/03 05:56:26;;;;;;;6.78;4.00;;;21.50;99.90;;;;;;10056616;28;20061;-64
2023/10/03 06:01:17;;;;;;;6.40;3.33;;;21.40;99.90;;;;;;10061072;28;20080;-71
2023/10/03 06:06:08;;;;;;;7.70;3.83;;;21.50;99.90;;;;;;10055542;28;20072;-70
2023/10/03 06:11:00;;;;;;;9.50;4.25;;;21.40;99.90;;;;;;10056058;28;20145;-71
2023/10/03 06:15:52;;;;;;;6.70;3.85;;;21.40;99.90;;;;;;10059636;28;20026;-63
2023/10/03 06:20:42;;;;;;;9.93;4.57;;;21.40;99.90;;;;;;10058981;28;20056;-65
2023/10/03 06:25:33;;;;;;;6.93;4.20;;;21.40;99.90;;;;;;10056781;28;20533;-65
2023/10/03 06:30:24;;;;;;;8.70;3.65;;;21.40;99.90;;;;;;10062952;28;20459;-67
2023/10/03 06:35:14;;;;;;;8.75;4.03;;;21.40;99.90;;;;;;10065045;28;20048;-64
2023/10/03 06:40:07;;;;;;;9.25;5.60;;;21.50;99.90;;;;;;10061751;28;20084;-66
2023/10/03 06:44:58;;;;;;;8.43;4.65;;;21.60;99.90;;;;;;10061217;28;20049;-66
2023/10/03 06:49:49;;;;;;;7.03;3.88;;;21.60;99.90;;;;;;10064346;28;20034;-71
2023/10/03 06:54:40;;;;;;;6.38;3.83;;;21.60;99.90;;;;;;10060612;28;20087;-67
2023/10/03 06:59:33;;;;;;;11.15;3.78;;;21.60;99.90;;;;;;10061250;28;20030;-65
2023/10/03 07:04:23;;;;;;;7.60;4.65;;;21.60;99.90;;;;;;10057771;28;20087;-65
2023/10/03 07:09:16;;;;;;;7.80;3.45;;;21.70;99.90;;;;;;10057194;28;20086;-67
2023/10/03 07:14:12;;;;;;;7.10;3.50;;;21.60;99.90;;;;;;10061295;28;20037;-67
2023/10/03 07:19:04;;;;;;;8.27;3.33;;;21.60;99.90;;;;;;10062096;28;20025;-67
2023/10/03 07:23:54;;;;;;;6.57;3.97;;;21.60;99.90;;;;;;10060321;28;20041;-69
2023/10/03 07:28:45;;;;;;;6.80;3.80;;;21.70;99.90;;;;;;10053887;28;20042;-71
2023/10/03 07:33:36;;;;;;;6.45;3.35;;;21.70;99.90;;;;;;10062850;28;20068;-64
2023/10/03 07:38:28;;;;;;;6.80;3.25;;;21.80;99.90;;;;;;10055945;28;20029;-71
2023/10/03 07:43:19;;;;;;;7.05;4.15;;;21.90;99.90;;;;;;10057689;28;20037;-66
2023/10/03 07:48:10;;;;;;;9.73;4.50;;;22.00;99.90;;;;;;10053270;28;20043;-66
2023/10/03 07:53:00;;;;;;;5.43;3.10;;;22.10;99.90;;;;;;10047364;28;20522;-67
2023/10/03 07:57:54;;;;;;;7.60;3.15;;;22.10;99.90;;;;;;10051858;28;20036;-66
2023/10/03 08:02:45;;;;;;;5.43;3.20;;;22.20;99.90;;;;;;10051620;28;20068;-67
2023/10/03 08:07:38;;;;;;;5.35;3.00;;;22.20;99.90;;;;;;10047454;28;20029;-66
2023/10/03 08:12:29;;;;;;;6.72;3.83;;;22.30;99.90;;;;;;10051429;28;20025;-72
2023/10/03 08:17:20;;;;;;;7.53;4.10;;;22.30;99.90;;;;;;10058551;28;20073;-68
2023/10/03 08:22:12;;;;;;;5.57;3.00;;;22.40;99.90;;;;;;10058195;28;20036;-68
2023/10/03 08:27:03;;;;;;;7.22;3.67;;;22.50;99.90;;;;;;10046808;28;20037;-65
2023/10/03 08:31:59;;;;;;;5.97;4.28;;;22.50;99.90;;;;;;10062221;28;20045;-69
2023/10/03 08:36:54;;;;;;;5.28;3.22;;;22.60;99.90;;;;;;10057850;28;20046;-66
2023/10/03 08:41:47;;;;;;;7.88;3.60;;;22.70;99.90;;;;;;10038530;28;20469;-66
2023/10/03 08:46:46;;;;;;;6.55;3.58;;;22.90;99.90;;;;;;10046732;28;20057;-66
2023/10/03 08:51:36;;;;;;;8.13;2.95;;;23.00;99.90;;;;;;10053017;28;20041;-68
2023/10/03 08:56:28;;;;;;;7.15;3.70;;;23.10;99.90;;;;;;10049687;28;20408;-67
2023/10/03 09:01:19;;;;;;;8.30;3.85;;;23.30;99.90;;;;;;10052290;28;20541;-66
2023/10/03 09:06:19;;;;;;;8.45;3.70;;;23.40;99.90;;;;;;10055745;28;20060;-69
2023/10/03 09:11:13;;;;;;;8.73;3.13;;;23.50;99.90;;;;;;10040947;28;20057;-66
2023/10/03 09:16:08;;;;;;;5.47;2.93;;;23.40;99.90;;;;;;10048201;28;20036;-68
2023/10/03 09:21:04;;;;;;;7.97;3.70;;;23.40;99.90;;;;;;10053454;28;20314;-67
2023/10/03 09:25:58;;;;;;;7.90;3.80;;;23.40;99.90;;;;;;10051631;28;20060;-65
2023/10/03 09:30:50;;;;;;;8.02;3.33;;;23.50;99.90;;;;;;10056838;28;20547;-66
2023/10/03 09:36:01;;;;;;;7.72;3.92;;;23.60;99.90;;;;;;10055557;28;20038;-66
2023/10/03 09:40:52;;;;;;;7.60;4.22;;;23.70;99.90;;;;;;10051637;28;20046;-72
2023/10/03 09:45:46;;;;;;;7.97;4.22;;;23.80;99.90;;;;;;10054598;28;20033;-67
2023/10/03 09:50:38;;;;;;;6.63;3.90;;;24.00;99.90;;;;;;10056120;28;20618;-66
2023/10/03 09:55:41;;;;;;;6.40;3.83;;;24.10;99.90;;;;;;10053872;28;20092;-65
2023/10/03 10:00:50;;;;;;;8.52;3.83;;;24.20;99.90;;;;;;10048753;28;20052;-67
2023/10/03 10:06:12;;;;;;;8.20;3.92;;;24.20;99.90;;;;;;10045857;28;20034;-66
2023/10/03 10:11:10;;;;;;;5.80;3.53;;;24.20;99.90;;;;;;10053438;28;20033;-67
2023/10/03 10:16:00;;;;;;;8.23;4.15;;;24.10;99.90;;;;;;10052872;28;20064;-67
2023/10/03 10:21:19;;;;;;;11.70;4.60;;;24.20;99.90;;;;;;10062391;28;20131;-65
2023/10/03 10:26:28;;;;;;;9.88;4.03;;;24.20;99.90;;;;;;10052565;28;20559;-73
2023/10/03 10:31:24;;;;;;;7.82;3.85;;;24.30;99.90;;;;;;10068873;28;20039;-69
2023/10/03 10:36:18;;;;;;;8.02;4.00;;;24.20;99.90;;;;;;10064426;28;20541;-66
2023/10/03 10:41:17;;;;;;;7.93;3.78;;;24.20;99.90;;;;;;10062480;28;20487;-67
2023/10/03 10:46:46;;;;;;;6.90;4.32;;;24.10;99.90;;;;;;10062483;28;20486;-65
2023/10/03 10:51:38;;;;;;;7.55;4.35;;;24.10;99.90;;;;;;10061311;28;20540;-68
2023/10/03 10:56:28;;;;;;;7.63;3.72;;;24.20;99.90;;;;;;10043586;28;20383;-66
2023/10/03 11:01:21;;;;;;;10.07;4.10;;;24.20;99.90;;;;;;10052161;28;20033;-66
2023/10/03 11:06:17;;;;;;;7.95;3.80;;;24.30;99.90;;;;;;10046113;28;20499;-66
2023/10/03 11:11:11;;;;;;;9.00;4.32;;;24.50;99.90;;;;;;10041797;28;20060;-67
2023/10/03 11:16:04;;;;;;;14.32;4.10;;;24.60;99.90;;;;;;10056154;28;20041;-66
2023/10/03 11:20:55;;;;;;;7.82;3.33;;;24.70;99.90;;;;;;10052683;28;20224;-67
2023/10/03 11:25:56;;;;;;;4.80;3.13;;;24.60;99.90;;;;;;10053784;28;20064;-63
2023/10/03 11:31:04;;;;;;;6.90;3.10;;;24.50;99.90;;;;;;10055207;28;20065;-67
2023/10/03 11:35:55;;;;;;;7.10;3.65;;;24.40;99.90;;;;;;10059268;28;20117;-65
2023/10/03 11:40:49;;;;;;;6.43;3.70;;;24.30;99.90;;;;;;10058484;28;20152;-69
2023/10/03 11:45:40;;;;;;;7.40;4.23;;;24.30;99.90;;;;;;10059714;28;20410;-70
2023/10/03 11:50:32;;;;;;;9.68;3.90;;;24.30;99.90;;;;;;10059573;28;20103;-68
2023/10/03 11:55:23;;;;;;;7.38;3.78;;;24.20;99.90;;;;;;10057919;28;20033;-75
2023/10/03 12:00:17;;;;;;;7.25;3.97;;;24.20;99.90;;;;;;10062215;28;20036;-71
2023/10/03 12:05:10;;;;;;;8.30;3.10;;;24.10;99.90;;;;;;10052573;28;20072;-68
2023/10/03 12:10:00;;;;;;;5.78;3.70;;;24.20;99.90;;;;;;10045344;28;20030;-66
2023/10/03 12:14:51;;;;;;;9.77;3.63;;;24.20;99.90;;;;;;10053960;28;20030;-65
2023/10/03 12:19:42;;;;;;;5.93;3.15;;;24.20;99.90;;;;;;10056727;28;20037;-67
2023/10/03 12:24:33;;;;;;;8.48;3.63;;;24.30;99.90;;;;;;10054404;28;20061;-71
2023/10/03 12:29:31;;;;;;;9.82;4.35;;;24.20;99.90;;;;;;10052019;28;20454;-69
2023/10/03 12:34:25;;;;;;;4.35;2.78;;;24.30;99.90;;;;;;10063331;28;20021;-70
2023/10/03 12:39:18;;;;;;;9.27;4.37;;;24.30;99.90;;;;;;10057981;28;20701;-69
2023/10/03 12:44:09;;;;;;;3.97;3.00;;;24.40;99.90;;;;;;10057135;28;20807;-69
2023/10/03 12:49:00;;;;;;;4.95;2.78;;;24.50;99.90;;;;;;10057013;28;20289;-66
2023/10/03 12:53:52;;;;;;;11.35;4.13;;;24.60;99.90;;;;;;10034398;28;20041;-68
2023/10/03 12:58:42;;;;;;;4.07;2.88;;;24.60;99.90;;;;;;10032332;28;20057;-68
2023/10/03 13:03:33;;;;;;;5.93;3.25;;;24.60;99.90;;;;;;10038449;28;20069;-67
2023/10/03 13:08:27;;;;;;;4.93;2.60;;;24.60;99.90;;;;;;10044806;28;20034;-70
2023/10/03 13:13:17;;;;;;;4.65;2.70;;;24.70;99.90;;;;;;10056438;28;20200;-73
2023/10/03 13:18:08;;;;;;;6.72;3.10;;;24.70;99.90;;;;;;10052454;28;20211;-66
2023/10/03 13:23:00;;;;;;;6.07;2.70;;;24.70;99.90;;;;;;10055178;28;20041;-67
2023/10/03 13:27:53;;;;;;;7.10;2.75;;;24.70;99.90;;;;;;10053682;28;20072;-66
2023/10/03 13:32:51;;;;;;;5.80;2.53;;;24.80;99.90;;;;;;10052953;28;20032;-67
2023/10/03 13:37:43;;;;;;;5.20;2.47;;;24.90;99.90;;;;;;10054110;28;20030;-68
2023/10/03 13:42:38;;;;;;;6.22;3.00;;;24.90;99.90;;;;;;10053206;28;20505;-68
2023/10/03 13:47:30;;;;;;;;;;;25.00;99.90;;;;;;10053185;28;20038;-69
2023/10/03 13:52:21;;;;;;;9.25;3.45;;;24.90;99.90;;;;;;10055589;28;19917;-65
2023/10/03 13:57:12;;;;;;;7.22;2.88;;;24.90;99.90;;;;;;10056203;28;20029;-70
2023/10/03 14:02:03;;;;;;;4.38;2.72;;;24.80;99.90;;;;;;10054863;28;20049;-71
2023/10/03 14:06:54;;;;;;;6.50;2.58;;;24.70;99.90;;;;;;10055842;28;20437;-69
2023/10/03 14:11:46;;;;;;;4.30;2.10;;;24.70;99.90;;;;;;10055554;28;20072;-65
2023/10/03 14:16:37;;;;;;;5.18;2.33;;;24.70;99.90;;;;;;10053804;28;20025;-74
2023/10/03 14:21:27;;;;;;;5.28;1.80;;;24.40;99.90;;;;;;10053372;28;20041;-68
2023/10/03 14:26:18;;;;;;;4.20;1.92;;;24.20;99.90;;;;;;10054031;28;20044;-70
2023/10/03 14:31:09;;;;;;;3.08;1.83;;;24.10;99.90;;;;;;10059842;28;20033;-68
2023/10/03 14:36:00;;;;;;;2.47;1.67;;;24.10;99.90;;;;;;10058165;28;20132;-66
2023/10/03 14:40:50;;;;;;;3.30;1.90;;;24.00;99.90;;;;;;10054315;28;20034;-67
2023/10/03 14:45:41;;;;;;;4.20;2.15;;;24.00;99.90;;;;;;10055975;28;20037;-66
2023/10/03 14:50:32;;;;;;;2.22;1.45;;;24.00;99.90;;;;;;10052098;28;20116;-66
2023/10/03 14:55:22;;;;;;;4.43;1.90;;;23.90;99.90;;;;;;10066449;28;20108;-67
2023/10/03 15:00:17;;;;;;;4.20;1.70;;;23.70;99.90;;;;;;10060423;28;20068;-67
2023/10/03 15:05:10;;;;;;;2.78;1.25;;;23.60;99.90;;;;;;10062455;28;20079;-67
2023/10/03 15:10:00;;;;;;;1.67;0.80;;;22.80;99.90;;;;;;10061307;28;20036;-68
2023/10/03 15:14:51;;;;;;;1.60;0.90;;;22.10;99.90;;;;;;10060829;28;20034;-70
2023/10/03 15:19:42;;;;;;;1.73;0.68;;;21.80;99.90;;;;;;10059621;28;20403;-69
2023/10/03 15:24:32;;;;;;;2.13;0.95;;;21.80;99.90;;;;;;10057099;28;20037;-73
2023/10/03 15:29:23;;;;;;;1.42;0.90;;;21.80;99.90;;;;;;10058067;28;20037;-70
2023/10/03 15:34:30;;;;;;;1.52;0.70;;;21.70;99.90;;;;;;10068344;28;20440;-67
2023/10/03 15:39:21;;;;;;;2.70;1.20;;;21.60;99.90;;;;;;10057119;28;20037;-67
2023/10/03 15:44:12;;;;;;;1.45;0.80;;;21.70;99.90;;;;;;10058404;28;20123;-65
2023/10/03 15:49:03;;;;;;;1.77;0.90;;;21.70;99.90;;;;;;10059797;28;20112;-68
2023/10/03 15:53:54;;;;;;;3.60;1.20;;;21.70;99.90;;;;;;10058476;28;20467;-67
2023/10/03 15:58:45;;;;;;;2.92;1.15;;;21.70;99.90;;;;;;10059566;28;20030;-66
2023/10/03 16:03:36;;;;;;;3.15;1.00;;;21.70;99.90;;;;;;10045819;28;20042;-66
2023/10/03 16:08:29;;;;;;;2.60;1.30;;;21.90;99.90;;;;;;10060557;28;20036;-65
2023/10/03 16:13:20;;;;;;;3.70;1.52;;;21.90;99.90;;;;;;10058195;28;20025;-65
2023/10/03 16:18:11;;;;;;;5.65;1.20;;;22.00;99.90;;;;;;10062728;28;20021;-64
2023/10/03 16:23:03;;;;;;;1.40;1.00;;;22.00;99.90;;;;;;10065386;28;20095;-64
2023/10/03 16:27:53;;;;;;;3.88;1.40;;;22.10;99.90;;;;;;10059428;28;20102;-64
2023/10/03 16:32:44;;;;;;;2.78;1.30;;;22.20;99.90;;;;;;10073815;28;20127;-65
2023/10/03 16:37:35;;;;;;;3.22;1.35;;;22.20;99.90;;;;;;10065913;28;20049;-64
2023/10/03 16:42:26;;;;;;;2.10;1.20;;;22.20;99.90;;;;;;10055146;28;20454;-65
2023/10/03 16:47:17;;;;;;;3.58;1.30;;;22.40;99.90;;;;;;10048241;28;20279;-72
2023/10/03 16:52:07;;;;;;;4.80;2.80;;;22.30;99.90;;;;;;10042914;28;20158;-69
2023/10/03 16:57:00;;;;;;;4.72;1.42;;;22.40;99.90;;;;;;10035137;28;20646;-64
2023/10/03 17:01:51;;;;;;;4.93;1.27;;;22.30;99.90;;;;;;10038164;28;20499;-66
2023/10/03 17:06:42;;;;;;;1.83;1.52;;;22.30;99.90;;;;;;10043154;28;20035;-66
2023/10/03 17:11:32;;;;;;;3.67;1.30;;;22.00;99.90;;;;;;10060771;28;20049;-66
2023/10/03 17:16:23;;;;;;;1.85;0.75;;;21.90;99.90;;;;;;10056887;28;20070;-65
2023/10/03 17:21:16;;;;;;;2.22;0.93;;;21.80;99.90;;;;;;10056903;28;20058;-66
2023/10/03 17:26:07;;;;;;;2.53;1.48;;;21.80;99.90;;;;;;10052787;28;20040;-65
2023/10/03 17:30:59;;;;;;;3.92;1.27;;;21.80;99.90;;;;;;10075245;28;20120;-65
2023/10/03 17:35:51;;;;;;;2.40;1.20;;;21.70;99.90;;;;;;10066786;28;20029;-65
2023/10/03 17:40:41;;;;;;;4.70;1.48;;;21.70;99.90;;;;;;10065171;28;20029;-66
2023/10/03 17:45:32;;;;;;;1.90;1.35;;;21.70;99.90;;;;;;10064527;28;20041;-65
2023/10/03 17:50:23;;;;;;;3.42;1.40;;;21.60;99.90;;;;;;10067146;28;20037;-70
2023/10/03 17:55:14;;;;;;;5.53;1.70;;;21.60;99.90;;;;;;10051049;28;20914;-65
2023/10/03 18:00:07;;;;;;;3.15;1.23;;;21.50;99.90;;;;;;10059052;28;20039;-66
2023/10/03 18:04:58;;;;;;;2.05;1.25;;;21.40;99.90;;;;;;10054356;28;20495;-68
2023/10/03 18:09:49;;;;;;;1.70;1.05;;;21.30;99.90;;;;;;10055223;28;20029;-65
2023/10/03 18:14:39;;;;;;;4.25;1.55;;;21.20;99.90;;;;;;10054810;28;20321;-65
2023/10/03 18:19:30;;;;;;;3.20;1.20;;;21.20;99.90;;;;;;10055100;28;20526;-66
2023/10/03 18:24:21;;;;;;;1.85;1.17;;;21.30;99.90;;;;;;10054649;28;20064;-66
2023/10/03 18:29:15;;;;;;;2.70;1.40;;;21.20;99.90;;;;;;10060901;28;20041;-68
2023/10/03 18:34:06;;;;;;;2.57;1.37;;;21.10;99.90;;;;;;10062067;28;20022;-70
2023/10/03 18:38:57;;;;;;;2.90;1.35;;;21.00;99.90;;;;;;10059703;28;20436;-66
2023/10/03 18:43:49;;;;;;;3.83;1.70;;;21.00;99.90;;;;;;10061628;28;20033;-67
2023/10/03 18:48:40;;;;;;;2.33;1.25;;;21.00;99.90;;;;;;10061946;28;20034;-68
2023/10/03 18:53:33;;;;;;;2.50;1.42;;;20.90;99.90;;;;;;10059551;28;20033;-66
2023/10/03 18:58:25;;;;;;;2.65;1.35;;;20.80;99.90;;;;;;10056880;28;20022;-67
2023/10/03 19:03:16;;;;;;;3.22;1.23;;;20.90;99.90;;;;;;10051747;28;20088;-67
2023/10/03 19:08:06;;;;;;;3.53;1.30;;;20.90;99.90;;;;;;10054211;28;20079;-71
2023/10/03 19:12:57;;;;;;;2.53;1.17;;;21.00;99.90;;;;;;10058440;28;20045;-66
2023/10/03 19:17:47;;;;;;;2.85;1.40;;;21.00;99.90;;;;;;10058694;28;20109;-67
2023/10/03 19:22:38;;;;;;;4.57;1.88;;;21.00;99.90;;;;;;10060154;28;20053;-67
2023/10/03 19:27:29;;;;;;;3.75;1.67;;;20.90;99.90;;;;;;10059255;28;20049;-68
2023/10/03 19:32:20;;;;;;;2.70;1.95;;;21.00;99.90;;;;;;10068638;28;20029;-67
2023/10/03 19:37:14;;;;;;;2.75;1.10;;;21.00;99.90;;;;;;10058274;28;20034;-68
2023/10/03 19:42:05;;;;;;;2.28;1.52;;;20.90;99.90;;;;;;10050073;28;20030;-68
2023/10/03 19:46:58;;;;;;;2.20;1.17;;;20.80;99.90;;;;;;10058386;28;20138;-67
2023/10/03 19:51:49;;;;;;;3.45;1.77;;;20.70;99.90;;;;;;10056170;28;20036;-69
2023/10/03 19:56:41;;;;;;;3.08;1.50;;;20.60;99.90;;;;;;10052045;28;20606;-67
2023/10/03 20:01:31;;;;;;;3.08;1.63;;;20.60;99.90;;;;;;10042787;28;20029;-69
2023/10/03 20:06:23;;;;;;;2.75;1.23;;;20.70;99.90;;;;;;10035624;28;20069;-68
2023/10/03 20:11:14;;;;;;;4.68;1.88;;;20.60;99.90;;;;;;10048818;28;20030;-67
2023/10/03 20:16:04;;;;;;;2.85;1.38;;;20.60;99.90;;;;;;10056684;28;20017;-68
2023/10/03 20:20:55;;;;;;;3.85;2.08;;;20.70;99.90;;;;;;10057616;28;20017;-69
2023/10/03 20:25:45;;;;;;;5.80;2.10;;;20.70;99.90;;;;;;10069210;28;20036;-68
2023/10/03 20:30:36;;;;;;;4.00;1.95;;;20.70;99.90;;;;;;10059012;28;20474;-68
2023/10/03 20:35:27;;;;;;;4.15;2.00;;;20.40;99.90;;;;;;10059925;28;21378;-68
2023/10/03 20:40:18;;;;;;;4.72;1.60;;;20.30;99.90;;;;;;10056878;28;20043;-67
2023/10/03 20:45:09;;;;;;;4.50;1.80;;;20.40;99.90;;;;;;10058458;28;20042;-69
2023/10/03 20:50:01;;;;;;;3.50;1.63;;;20.40;99.90;;;;;;10059869;28;20028;-70
2023/10/03 20:54:51;;;;;;;2.38;1.40;;;20.30;99.90;;;;;;10060397;28;20032;-71
2023/10/03 20:59:42;;;;;;;2.92;1.38;;;20.20;99.90;;;;;;10047500;28;20033;-72
2023/10/03 21:04:34;;;;;;;3.22;1.38;;;20.20;99.90;;;;;;10039760;28;20039;-74
2023/10/03 21:09:30;;;;;;;3.40;1.80;;;20.30;99.90;;;;;;10034777;28;20129;-69
2023/10/03 21:14:21;;;;;;;2.95;1.35;;;20.30;99.90;;;;;;10049549;28;20065;-66
2023/10/03 21:19:11;;;;;;;4.20;1.20;;;20.30;99.90;;;;;;10044215;28;20025;-70
2023/10/03 21:24:02;;;;;;;3.40;1.00;;;20.20;99.90;;;;;;10055309;28;20045;-67
2023/10/03 21:28:53;;;;;;;3.30;2.15;;;20.20;99.90;;;;;;10051687;28;20454;-74
2023/10/03 21:33:45;;;;;;;3.20;1.60;;;20.20;99.90;;;;;;10054693;28;20033;-71
2023/10/03 21:38:35;;;;;;;4.53;1.40;;;20.20;99.90;;;;;;10034651;28;20057;-73
2023/10/03 21:43:26;;;;;;;4.25;1.10;;;20.00;99.90;;;;;;10030262;28;20507;-67
2023/10/03 21:48:17;;;;;;;3.83;1.83;;;20.00;99.90;;;;;;10050830;28;20514;-67
2023/10/03 21:53:09;;;;;;;3.38;1.63;;;19.80;99.90;;;;;;10052944;28;20069;-67
2023/10/03 21:58:00;;;;;;;3.95;1.58;;;19.80;99.90;;;;;;10053070;28;20506;-73
2023/10/03 22:02:53;;;;;;;3.15;1.20;;;19.70;99.90;;;;;;10045270;28;20190;-73
2023/10/03 22:07:43;;;;;;;2.83;1.52;;;19.60;99.90;;;;;;10039213;28;20030;-74
2023/10/03 22:12:34;;;;;;;2.38;1.15;;;19.60;99.90;;;;;;10044341;28;20045;-75
2023/10/03 22:17:25;;;;;;;3.55;1.65;;;19.70;99.90;;;;;;10037704;28;20093;-67
2023/10/03 22:22:16;;;;;;;3.83;1.33;;;19.80;99.90;;;;;;10052646;28;20060;-68
2023/10/03 22:27:07;;;;;;;3.47;1.77;;;19.70;99.90;;;;;;10058721;28;20033;-66
2023/10/03 22:31:57;;;;;;;2.65;1.27;;;19.60;99.90;;;;;;10061523;28;20479;-69
2023/10/03 22:36:48;;;;;;;3.15;1.60;;;19.70;99.90;;;;;;10039048;28;20044;-66
2023/10/03 22:41:39;;;;;;;4.85;1.98;;;19.50;99.90;;;;;;10040082;28;20496;-66
2023/10/03 22:46:30;;;;;;;5.70;1.40;;;19.40;99.90;;;;;;10060132;28;20087;-66
2023/10/03 22:51:21;;;;;;;3.28;1.42;;;19.30;99.90;;;;;;10061522;28;20027;-66
2023/10/03 22:56:11;;;;;;;2.97;1.65;;;19.30;99.90;;;;;;10059166;28;20446;-66
2023/10/03 23:01:03;;;;;;;2.88;1.42;;;19.30;99.90;;;;;;10049532;28;20049;-66
2023/10/03 23:05:54;;;;;;;3.28;1.67;;;19.30;99.90;;;;;;10049624;28;20038;-67
2023/10/03 23:10:44;;;;;;;6.05;2.15;;;19.40;99.90;;;;;;10041747;28;20400;-69
2023/10/03 23:15:40;;;;;;;4.10;1.52;;;19.30;99.90;;;;;;10038971;28;20030;-66
2023/10/03 23:20:31;;;;;;;2.95;1.73;;;19.20;99.90;;;;;;10033383;28;20041;-67
2023/10/03 23:25:22;;;;;;;3.45;1.80;;;19.10;99.90;;;;;;10056462;28;20158;-66
2023/10/03 23:30:13;;;;;;;2.85;1.40;;;18.80;99.90;;;;;;10055311;28;20066;-66
2023/10/03 23:35:04;;;;;;;2.33;1.33;;;18.70;99.90;;;;;;10046612;28;20042;-66
2023/10/03 23:39:56;;;;;;;3.08;1.40;;;18.80;99.90;;;;;;10036466;28;20036;-67
2023/10/03 23:44:47;;;;;;;1.80;1.30;;;18.80;99.90;;;;;;10033389;28;20033;-67
2023/10/03 23:49:37;;;;;;;2.60;1.15;;;18.80;99.90;;;;;;10049456;28;20038;-67
2023/10/03 23:54:28;;;;;;;4.13;1.67;;;18.90;99.90;;;;;;10058371;28;20018;-66
2023/10/03 23:59:20;;;;;;;3.35;1.30;;;18.80;99.90;;;;;;10048669;28;20092;-67
